sensor_id;sensor_type;location;lat;lon;timestamp;pressure;altitude;pressure_sealevel;temperature;humidity
7480;BME280;3781;42.272;22.658;2023-04-08T00:00:15;94632.91;;;5.08;nan
7480;BME280;3781;42.272;22.658;2023-04-08T00:02:42;94641.94;;;5.01;nan
7480;BME280;3781;42.272;22.658;2023-04-08T00:05:08;94619.06;;;4.84;nan
7480;BME280;3781;42.272;22.658;2023-04-08T00:07:35;94641.44;;;4.96;nan
7480;BME280;3781;42.272;22.658;2023-04-08T00:10:03;94643.19;;;5.08;nan
7480;BME280;3781;42.272;22.658;2023-04-08T00:12:31;94638.16;;;5.19;nan
7480;BME280;3781;42.272;22.658;2023-04-08T00:14:58;94643.09;;;5.22;nan
7480;BME280;3781;42.272;22.658;2023-04-08T00:17:26;94629.91;;;5.14;nan
7480;BME280;3781;42.272;22.658;2023-04-08T00:19:53;94641.06;;;5.27;nan
7480;BME280;3781;42.272;22.658;2023-04-08T00:22:20;94603.44;;;4.99;nan
7480;BME280;3781;42.272;22.658;2023-04-08T00:24:47;94640.75;;;5.19;nan
7480;BME280;3781;42.272;22.658;2023-04-08T00:27:14;94631.16;;;5.21;nan
7480;BME280;3781;42.272;22.658;2023-04-08T00:29:41;94637.56;;;5.28;nan
7480;BME280;3781;42.272;22.658;2023-04-08T00:32:07;94632.06;;;5.20;nan
7480;BME280;3781;42.272;22.658;2023-04-08T00:34:36;94633.31;;;5.27;nan
7480;BME280;3781;42.272;22.658;2023-04-08T00:37:02;94631.78;;;5.24;nan
7480;BME280;3781;42.272;22.658;2023-04-08T00:39:29;94637.03;;;5.23;nan
7480;BME280;3781;42.272;22.658;2023-04-08T00:41:56;94618.00;;;5.13;nan
7480;BME280;3781;42.272;22.658;2023-04-08T00:44:23;94632.31;;;5.17;nan
7480;BME280;3781;42.272;22.658;2023-04-08T00:46:50;94625.91;;;5.10;nan
7480;BME280;3781;42.272;22.658;2023-04-08T00:49:17;94592.13;;;4.89;nan
7480;BME280;3781;42.272;22.658;2023-04-08T00:51:45;94611.88;;;5.01;nan
7480;BME280;3781;42.272;22.658;2023-04-08T00:54:11;94622.59;;;5.08;nan
7480;BME280;3781;42.272;22.658;2023-04-08T00:56:38;94645.06;;;5.18;nan
7480;BME280;3781;42.272;22.658;2023-04-08T00:59:05;94640.94;;;5.16;nan
7480;BME280;3781;42.272;22.658;2023-04-08T01:01:38;94642.19;;;5.23;nan
7480;BME280;3781;42.272;22.658;2023-04-08T01:04:22;94646.09;;;5.16;nan
7480;BME280;3781;42.272;22.658;2023-04-08T01:07:01;94645.47;;;5.25;nan
7480;BME280;3781;42.272;22.658;2023-04-08T01:09:32;94650.03;;;5.34;nan
7480;BME280;3781;42.272;22.658;2023-04-08T01:12:02;94655.38;;;5.31;nan
7480;BME280;3781;42.272;22.658;2023-04-08T01:14:30;94660.09;;;5.24;nan
7480;BME280;3781;42.272;22.658;2023-04-08T01:16:59;94658.66;;;5.20;nan
7480;BME280;3781;42.272;22.658;2023-04-08T01:19:29;94615.59;;;4.85;nan
7480;BME280;3781;42.272;22.658;2023-04-08T01:22:02;94659.63;;;4.93;nan
7480;BME280;3781;42.272;22.658;2023-04-08T01:24:35;94669.53;;;4.99;nan
7480;BME280;3781;42.272;22.658;2023-04-08T01:27:06;94659.06;;;5.02;nan
7480;BME280;3781;42.272;22.658;2023-04-08T01:29:36;94675.97;;;5.18;nan
7480;BME280;3781;42.272;22.658;2023-04-08T01:32:03;94672.03;;;5.13;nan
7480;BME280;3781;42.272;22.658;2023-04-08T01:34:31;94662.09;;;4.94;nan
7480;BME280;3781;42.272;22.658;2023-04-08T01:37:01;94643.34;;;4.80;nan
7480;BME280;3781;42.272;22.658;2023-04-08T01:39:29;94676.22;;;4.89;nan
7480;BME280;3781;42.272;22.658;2023-04-08T01:41:56;94670.41;;;4.85;nan
7480;BME280;3781;42.272;22.658;2023-04-08T01:44:25;94669.69;;;4.83;nan
7480;BME280;3781;42.272;22.658;2023-04-08T01:46:53;94667.41;;;4.79;nan
7480;BME280;3781;42.272;22.658;2023-04-08T01:49:21;94666.50;;;4.80;nan
7480;BME280;3781;42.272;22.658;2023-04-08T01:51:50;94677.91;;;4.76;nan
7480;BME280;3781;42.272;22.658;2023-04-08T01:54:17;94677.91;;;4.76;nan
7480;BME280;3781;42.272;22.658;2023-04-08T01:56:45;94646.94;;;4.50;nan
7480;BME280;3781;42.272;22.658;2023-04-08T01:59:13;94672.91;;;4.87;nan
7480;BME280;3781;42.272;22.658;2023-04-08T02:01:43;94678.06;;;4.87;nan
7480;BME280;3781;42.272;22.658;2023-04-08T02:04:11;94678.75;;;4.76;nan
7480;BME280;3781;42.272;22.658;2023-04-08T02:06:38;94677.50;;;4.82;nan
7480;BME280;3781;42.272;22.658;2023-04-08T02:09:05;94681.06;;;4.67;nan
7480;BME280;3781;42.272;22.658;2023-04-08T02:11:32;94677.88;;;4.63;nan
7480;BME280;3781;42.272;22.658;2023-04-08T02:14:00;94685.34;;;4.80;nan
7480;BME280;3781;42.272;22.658;2023-04-08T02:16:31;94644.91;;;4.55;nan
7480;BME280;3781;42.272;22.658;2023-04-08T02:19:07;94661.97;;;4.83;nan
7480;BME280;3781;42.272;22.658;2023-04-08T02:21:39;94673.63;;;4.89;nan
7480;BME280;3781;42.272;22.658;2023-04-08T02:24:09;94646.38;;;4.59;nan
7480;BME280;3781;42.272;22.658;2023-04-08T02:26:38;94668.06;;;4.82;nan
7480;BME280;3781;42.272;22.658;2023-04-08T02:29:06;94647.44;;;4.70;nan
7480;BME280;3781;42.272;22.658;2023-04-08T02:31:37;94667.63;;;4.76;nan
7480;BME280;3781;42.272;22.658;2023-04-08T02:34:08;94660.41;;;4.81;nan
7480;BME280;3781;42.272;22.658;2023-04-08T02:36:35;94672.63;;;4.65;nan
7480;BME280;3781;42.272;22.658;2023-04-08T02:39:03;94669.19;;;4.51;nan
7480;BME280;3781;42.272;22.658;2023-04-08T02:41:30;94612.50;;;4.26;nan
7480;BME280;3781;42.272;22.658;2023-04-08T02:43:57;94661.06;;;4.57;nan
7480;BME280;3781;42.272;22.658;2023-04-08T02:46:24;94667.25;;;4.68;nan
7480;BME280;3781;42.272;22.658;2023-04-08T02:48:50;94636.47;;;4.53;nan
7480;BME280;3781;42.272;22.658;2023-04-08T02:51:18;94633.19;;;4.51;nan
7480;BME280;3781;42.272;22.658;2023-04-08T02:53:46;94659.38;;;4.71;nan
7480;BME280;3781;42.272;22.658;2023-04-08T02:56:12;94656.69;;;4.72;nan
7480;BME280;3781;42.272;22.658;2023-04-08T02:58:40;94655.44;;;4.65;nan
7480;BME280;3781;42.272;22.658;2023-04-08T03:01:07;94661.19;;;4.56;nan
7480;BME280;3781;42.272;22.658;2023-04-08T03:03:34;94659.94;;;4.62;nan
7480;BME280;3781;42.272;22.658;2023-04-08T03:06:02;94665.31;;;4.58;nan
7480;BME280;3781;42.272;22.658;2023-04-08T03:08:30;94653.13;;;4.48;nan
7480;BME280;3781;42.272;22.658;2023-04-08T03:10:58;94659.13;;;4.61;nan
7480;BME280;3781;42.272;22.658;2023-04-08T03:13:24;94658.63;;;4.69;nan
7480;BME280;3781;42.272;22.658;2023-04-08T03:15:51;94670.06;;;4.65;nan
7480;BME280;3781;42.272;22.658;2023-04-08T03:18:18;94644.97;;;4.41;nan
7480;BME280;3781;42.272;22.658;2023-04-08T03:20:45;94623.59;;;4.27;nan
7480;BME280;3781;42.272;22.658;2023-04-08T03:23:12;94664.06;;;4.64;nan
7480;BME280;3781;42.272;22.658;2023-04-08T03:25:40;94658.09;;;4.64;nan
7480;BME280;3781;42.272;22.658;2023-04-08T03:28:07;94671.31;;;4.72;nan
7480;BME280;3781;42.272;22.658;2023-04-08T03:30:34;94668.59;;;4.61;nan
7480;BME280;3781;42.272;22.658;2023-04-08T03:33:00;94662.91;;;4.55;nan
7480;BME280;3781;42.272;22.658;2023-04-08T03:35:32;94680.09;;;4.55;nan
7480;BME280;3781;42.272;22.658;2023-04-08T03:37:59;94622.84;;;4.39;nan
7480;BME280;3781;42.272;22.658;2023-04-08T03:40:26;94647.72;;;4.38;nan
7480;BME280;3781;42.272;22.658;2023-04-08T03:42:54;94682.94;;;4.50;nan
7480;BME280;3781;42.272;22.658;2023-04-08T03:45:21;94679.47;;;4.51;nan
7480;BME280;3781;42.272;22.658;2023-04-08T03:47:47;94677.00;;;4.50;nan
7480;BME280;3781;42.272;22.658;2023-04-08T03:50:14;94671.84;;;4.50;nan
7480;BME280;3781;42.272;22.658;2023-04-08T03:52:41;94678.00;;;4.47;nan
7480;BME280;3781;42.272;22.658;2023-04-08T03:55:08;94668.41;;;4.23;nan
7480;BME280;3781;42.272;22.658;2023-04-08T03:57:35;94678.19;;;4.44;nan
7480;BME280;3781;42.272;22.658;2023-04-08T04:00:04;94681.59;;;4.45;nan
7480;BME280;3781;42.272;22.658;2023-04-08T04:02:30;94688.09;;;4.50;nan
7480;BME280;3781;42.272;22.658;2023-04-08T04:04:57;94660.03;;;4.33;nan
7480;BME280;3781;42.272;22.658;2023-04-08T04:07:24;94678.56;;;4.38;nan
7480;BME280;3781;42.272;22.658;2023-04-08T04:09:51;94684.19;;;4.31;nan
7480;BME280;3781;42.272;22.658;2023-04-08T04:12:20;94685.03;;;4.58;nan
7480;BME280;3781;42.272;22.658;2023-04-08T04:14:47;94688.38;;;4.73;nan
7480;BME280;3781;42.272;22.658;2023-04-08T04:17:15;94669.94;;;4.66;nan
7480;BME280;3781;42.272;22.658;2023-04-08T04:19:42;94687.09;;;4.80;nan
7480;BME280;3781;42.272;22.658;2023-04-08T04:22:09;94647.63;;;4.67;nan
7480;BME280;3781;42.272;22.658;2023-04-08T04:24:36;94642.44;;;4.54;nan
7480;BME280;3781;42.272;22.658;2023-04-08T04:27:02;94691.28;;;4.81;nan
7480;BME280;3781;42.272;22.658;2023-04-08T04:29:30;94695.72;;;4.79;nan
7480;BME280;3781;42.272;22.658;2023-04-08T04:31:57;94668.03;;;4.70;nan
7480;BME280;3781;42.272;22.658;2023-04-08T04:34:25;94673.38;;;4.79;nan
7480;BME280;3781;42.272;22.658;2023-04-08T04:36:52;94671.69;;;4.66;nan
7480;BME280;3781;42.272;22.658;2023-04-08T04:39:18;94686.75;;;4.72;nan
7480;BME280;3781;42.272;22.658;2023-04-08T04:41:45;94670.06;;;4.65;nan
7480;BME280;3781;42.272;22.658;2023-04-08T04:44:13;94679.97;;;4.83;nan
7480;BME280;3781;42.272;22.658;2023-04-08T04:46:40;94681.50;;;5.00;nan
7480;BME280;3781;42.272;22.658;2023-04-08T04:49:07;94662.94;;;4.95;nan
7480;BME280;3781;42.272;22.658;2023-04-08T04:51:35;94680.69;;;5.24;nan
7480;BME280;3781;42.272;22.658;2023-04-08T04:54:02;94682.56;;;5.35;nan
7480;BME280;3781;42.272;22.658;2023-04-08T04:56:28;94679.97;;;5.35;nan
7480;BME280;3781;42.272;22.658;2023-04-08T04:58:55;94683.63;;;5.45;nan
7480;BME280;3781;42.272;22.658;2023-04-08T05:01:22;94654.66;;;5.29;nan
7480;BME280;3781;42.272;22.658;2023-04-08T05:03:49;94691.25;;;5.59;nan
7480;BME280;3781;42.272;22.658;2023-04-08T05:06:16;94677.03;;;5.66;nan
7480;BME280;3781;42.272;22.658;2023-04-08T05:08:44;94685.91;;;5.87;nan
7480;BME280;3781;42.272;22.658;2023-04-08T05:11:11;94688.97;;;6.05;nan
7480;BME280;3781;42.272;22.658;2023-04-08T05:13:38;94696.50;;;6.21;nan
7480;BME280;3781;42.272;22.658;2023-04-08T05:16:05;94686.28;;;6.19;nan
7480;BME280;3781;42.272;22.658;2023-04-08T05:18:32;94695.53;;;6.34;nan
7480;BME280;3781;42.272;22.658;2023-04-08T05:20:58;94682.78;;;6.33;nan
7480;BME280;3781;42.272;22.658;2023-04-08T05:23:25;94650.81;;;6.10;nan
7480;BME280;3781;42.272;22.658;2023-04-08T05:25:53;94694.72;;;6.34;nan
7480;BME280;3781;42.272;22.658;2023-04-08T05:28:20;94684.91;;;6.39;nan
7480;BME280;3781;42.272;22.658;2023-04-08T05:30:48;94700.88;;;6.44;nan
7480;BME280;3781;42.272;22.658;2023-04-08T05:33:15;94667.06;;;6.36;nan
7480;BME280;3781;42.272;22.658;2023-04-08T05:35:42;94689.97;;;6.64;nan
7480;BME280;3781;42.272;22.658;2023-04-08T05:38:09;94690.66;;;6.42;nan
7480;BME280;3781;42.272;22.658;2023-04-08T05:40:36;94694.31;;;6.27;nan
7480;BME280;3781;42.272;22.658;2023-04-08T05:43:04;94664.19;;;5.91;nan
7480;BME280;3781;42.272;22.658;2023-04-08T05:45:30;94689.63;;;6.08;nan
7480;BME280;3781;42.272;22.658;2023-04-08T05:47:57;94697.66;;;6.04;nan
7480;BME280;3781;42.272;22.658;2023-04-08T05:50:24;94693.72;;;6.24;nan
7480;BME280;3781;42.272;22.658;2023-04-08T05:52:51;94700.88;;;6.44;nan
7480;BME280;3781;42.272;22.658;2023-04-08T05:55:18;94689.63;;;6.45;nan
7480;BME280;3781;42.272;22.658;2023-04-08T05:57:45;94697.75;;;6.51;nan
7480;BME280;3781;42.272;22.658;2023-04-08T06:00:13;94701.59;;;6.82;nan
7480;BME280;3781;42.272;22.658;2023-04-08T06:02:41;94656.66;;;6.61;nan
7480;BME280;3781;42.272;22.658;2023-04-08T06:05:08;94694.28;;;7.00;nan
7480;BME280;3781;42.272;22.658;2023-04-08T06:07:35;94690.91;;;7.10;nan
7480;BME280;3781;42.272;22.658;2023-04-08T06:10:02;94672.50;;;7.15;nan
7480;BME280;3781;42.272;22.658;2023-04-08T06:12:29;94694.72;;;7.52;nan
7480;BME280;3781;42.272;22.658;2023-04-08T06:14:57;94689.94;;;7.81;nan
7480;BME280;3781;42.272;22.658;2023-04-08T06:17:25;94691.47;;;7.94;nan
7480;BME280;3781;42.272;22.658;2023-04-08T06:19:52;94695.13;;;8.14;nan
7480;BME280;3781;42.272;22.658;2023-04-08T06:22:18;94696.56;;;8.29;nan
7480;BME280;3781;42.272;22.658;2023-04-08T06:24:46;94697.03;;;8.34;nan
7480;BME280;3781;42.272;22.658;2023-04-08T06:27:13;94672.44;;;7.84;nan
7480;BME280;3781;42.272;22.658;2023-04-08T06:29:40;94691.13;;;8.21;nan
7480;BME280;3781;42.272;22.658;2023-04-08T06:32:07;94700.69;;;8.43;nan
7480;BME280;3781;42.272;22.658;2023-04-08T06:34:35;94674.69;;;8.11;nan
7480;BME280;3781;42.272;22.658;2023-04-08T06:37:02;94706.66;;;8.21;nan
7480;BME280;3781;42.272;22.658;2023-04-08T06:39:29;94696.22;;;8.33;nan
7480;BME280;3781;42.272;22.658;2023-04-08T06:41:56;94696.69;;;8.50;nan
7480;BME280;3781;42.272;22.658;2023-04-08T06:44:23;94691.94;;;8.66;nan
7480;BME280;3781;42.272;22.658;2023-04-08T06:46:50;94702.84;;;8.91;nan
7480;BME280;3781;42.272;22.658;2023-04-08T06:49:17;94677.75;;;8.92;nan
7480;BME280;3781;42.272;22.658;2023-04-08T06:51:45;94644.88;;;9.03;nan
7480;BME280;3781;42.272;22.658;2023-04-08T06:54:11;94700.06;;;9.67;nan
7480;BME280;3781;42.272;22.658;2023-04-08T06:56:38;94672.66;;;9.54;nan
7480;BME280;3781;42.272;22.658;2023-04-08T06:59:05;94702.38;;;9.70;nan
7480;BME280;3781;42.272;22.658;2023-04-08T07:01:32;94707.66;;;9.80;nan
7480;BME280;3781;42.272;22.658;2023-04-08T07:03:58;94708.78;;;9.87;nan
7480;BME280;3781;42.272;22.658;2023-04-08T07:06:26;94703.81;;;9.43;nan
7480;BME280;3781;42.272;22.658;2023-04-08T07:08:54;94704.38;;;9.46;nan
7480;BME280;3781;42.272;22.658;2023-04-08T07:11:21;94708.56;;;9.79;nan
7480;BME280;3781;42.272;22.658;2023-04-08T07:13:48;94711.09;;;9.90;nan
7480;BME280;3781;42.272;22.658;2023-04-08T07:16:16;94715.19;;;10.64;nan
7480;BME280;3781;42.272;22.658;2023-04-08T07:18:43;94719.03;;;10.70;nan
7480;BME280;3781;42.272;22.658;2023-04-08T07:21:11;94695.88;;;10.17;nan
7480;BME280;3781;42.272;22.658;2023-04-08T07:23:39;94707.47;;;10.43;nan
7480;BME280;3781;42.272;22.658;2023-04-08T07:26:07;94704.66;;;10.35;nan
7480;BME280;3781;42.272;22.658;2023-04-08T07:28:34;94720.56;;;10.82;nan
7480;BME280;3781;42.272;22.658;2023-04-08T07:31:09;94724.31;;;11.08;nan
7480;BME280;3781;42.272;22.658;2023-04-08T07:33:35;94727.88;;;11.07;nan
7480;BME280;3781;42.272;22.658;2023-04-08T07:36:02;94674.38;;;9.85;nan
7480;BME280;3781;42.272;22.658;2023-04-08T07:38:29;94714.91;;;9.86;nan
7480;BME280;3781;42.272;22.658;2023-04-08T07:40:56;94678.28;;;9.79;nan
7480;BME280;3781;42.272;22.658;2023-04-08T07:43:24;94697.31;;;10.40;nan
7480;BME280;3781;42.272;22.658;2023-04-08T07:45:51;94712.47;;;10.66;nan
7480;BME280;3781;42.272;22.658;2023-04-08T07:48:18;94727.53;;;10.81;nan
7480;BME280;3781;42.272;22.658;2023-04-08T07:50:45;94721.38;;;10.42;nan
7480;BME280;3781;42.272;22.658;2023-04-08T07:53:12;94727.28;;;10.84;nan
7480;BME280;3781;42.272;22.658;2023-04-08T07:55:39;94729.09;;;11.03;nan
7480;BME280;3781;42.272;22.658;2023-04-08T07:58:06;94715.28;;;11.12;nan
7480;BME280;3781;42.272;22.658;2023-04-08T08:00:35;94698.88;;;11.40;nan
7480;BME280;3781;42.272;22.658;2023-04-08T08:03:02;94703.00;;;11.23;nan
7480;BME280;3781;42.272;22.658;2023-04-08T08:05:29;94725.03;;;11.19;nan
7480;BME280;3781;42.272;22.658;2023-04-08T08:07:55;94734.38;;;11.89;nan
7480;BME280;3781;42.272;22.658;2023-04-08T08:10:22;94681.91;;;11.55;nan
7480;BME280;3781;42.272;22.658;2023-04-08T08:12:49;94727.34;;;12.08;nan
7480;BME280;3781;42.272;22.658;2023-04-08T08:15:16;94735.94;;;12.92;nan
7480;BME280;3781;42.272;22.658;2023-04-08T08:17:44;94727.72;;;13.94;nan
7480;BME280;3781;42.272;22.658;2023-04-08T08:20:11;94728.66;;;14.54;nan
7480;BME280;3781;42.272;22.658;2023-04-08T08:22:37;94722.41;;;16.84;nan
7480;BME280;3781;42.272;22.658;2023-04-08T08:25:05;94717.50;;;17.58;nan
7480;BME280;3781;42.272;22.658;2023-04-08T08:27:34;94716.75;;;17.95;nan
7480;BME280;3781;42.272;22.658;2023-04-08T08:30:01;94720.53;;;16.45;nan
7480;BME280;3781;42.272;22.658;2023-04-08T08:32:28;94725.47;;;15.18;nan
7480;BME280;3781;42.272;22.658;2023-04-08T08:34:57;94716.59;;;14.61;nan
7480;BME280;3781;42.272;22.658;2023-04-08T08:37:24;94719.41;;;13.99;nan
7480;BME280;3781;42.272;22.658;2023-04-08T08:39:50;94697.75;;;13.81;nan
7480;BME280;3781;42.272;22.658;2023-04-08T08:42:19;94669.81;;;13.20;nan
7480;BME280;3781;42.272;22.658;2023-04-08T08:44:46;94705.09;;;14.03;nan
7480;BME280;3781;42.272;22.658;2023-04-08T08:47:13;94676.66;;;13.74;nan
7480;BME280;3781;42.272;22.658;2023-04-08T08:49:41;94717.81;;;13.63;nan
7480;BME280;3781;42.272;22.658;2023-04-08T08:52:09;94694.53;;;13.16;nan
7480;BME280;3781;42.272;22.658;2023-04-08T08:54:36;94707.88;;;12.86;nan
7480;BME280;3781;42.272;22.658;2023-04-08T08:57:03;94708.38;;;12.72;nan
7480;BME280;3781;42.272;22.658;2023-04-08T08:59:30;94713.44;;;12.64;nan
7480;BME280;3781;42.272;22.658;2023-04-08T09:01:56;94681.50;;;12.35;nan
7480;BME280;3781;42.272;22.658;2023-04-08T09:04:23;94710.31;;;12.24;nan
7480;BME280;3781;42.272;22.658;2023-04-08T09:07:08;94711.91;;;12.44;nan
7480;BME280;3781;42.272;22.658;2023-04-08T09:09:47;94705.97;;;12.15;nan
7480;BME280;3781;42.272;22.658;2023-04-08T09:12:14;94657.94;;;11.90;nan
7480;BME280;3781;42.272;22.658;2023-04-08T09:14:41;94707.16;;;12.30;nan
7480;BME280;3781;42.272;22.658;2023-04-08T09:17:08;94697.22;;;12.52;nan
7480;BME280;3781;42.272;22.658;2023-04-08T09:19:35;94682.94;;;12.56;nan
7480;BME280;3781;42.272;22.658;2023-04-08T09:22:06;94697.63;;;12.48;nan
7480;BME280;3781;42.272;22.658;2023-04-08T09:24:35;94692.19;;;12.32;nan
7480;BME280;3781;42.272;22.658;2023-04-08T09:27:02;94701.41;;;12.63;nan
7480;BME280;3781;42.272;22.658;2023-04-08T09:29:29;94670.47;;;12.50;nan
7480;BME280;3781;42.272;22.658;2023-04-08T09:31:57;94690.97;;;12.63;nan
7480;BME280;3781;42.272;22.658;2023-04-08T09:34:25;94700.81;;;12.69;nan
7480;BME280;3781;42.272;22.658;2023-04-08T09:36:53;94693.63;;;12.17;nan
7480;BME280;3781;42.272;22.658;2023-04-08T09:39:20;94670.16;;;11.80;nan
7480;BME280;3781;42.272;22.658;2023-04-08T09:41:49;94695.22;;;11.71;nan
7480;BME280;3781;42.272;22.658;2023-04-08T09:44:18;94694.91;;;11.17;nan
7480;BME280;3781;42.272;22.658;2023-04-08T09:46:54;94687.69;;;11.30;nan
7480;BME280;3781;42.272;22.658;2023-04-08T09:49:25;94688.78;;;11.56;nan
7480;BME280;3781;42.272;22.658;2023-04-08T09:51:58;94696.41;;;11.29;nan
7480;BME280;3781;42.272;22.658;2023-04-08T09:54:30;94685.22;;;11.28;nan
7480;BME280;3781;42.272;22.658;2023-04-08T09:57:04;94683.59;;;11.37;nan
7480;BME280;3781;42.272;22.658;2023-04-08T09:59:37;94693.44;;;11.43;nan
7480;BME280;3781;42.272;22.658;2023-04-08T10:02:06;94673.69;;;11.60;nan
7480;BME280;3781;42.272;22.658;2023-04-08T10:04:37;94679.53;;;12.09;nan
7480;BME280;3781;42.272;22.658;2023-04-08T10:07:06;94670.75;;;12.10;nan
7480;BME280;3781;42.272;22.658;2023-04-08T10:09:34;94628.25;;;12.20;nan
7480;BME280;3781;42.272;22.658;2023-04-08T10:12:04;94662.28;;;12.45;nan
7480;BME280;3781;42.272;22.658;2023-04-08T10:14:31;94680.84;;;12.33;nan
7480;BME280;3781;42.272;22.658;2023-04-08T10:17:24;94663.81;;;12.38;nan
7480;BME280;3781;42.272;22.658;2023-04-08T10:19:52;94654.78;;;12.60;nan
7480;BME280;3781;42.272;22.658;2023-04-08T10:22:45;94665.34;;;13.30;nan
7480;BME280;3781;42.272;22.658;2023-04-08T10:25:29;94635.22;;;14.56;nan
7480;BME280;3781;42.272;22.658;2023-04-08T10:27:58;94640.97;;;16.22;nan
7480;BME280;3781;42.272;22.658;2023-04-08T10:30:38;94676.97;;;16.52;nan
7480;BME280;3781;42.272;22.658;2023-04-08T10:33:09;94655.13;;;14.91;nan
7480;BME280;3781;42.272;22.658;2023-04-08T10:35:37;94648.75;;;14.93;nan
7480;BME280;3781;42.272;22.658;2023-04-08T10:38:07;94659.25;;;16.38;nan
7480;BME280;3781;42.272;22.658;2023-04-08T10:40:35;94671.94;;;18.92;nan
7480;BME280;3781;42.272;22.658;2023-04-08T10:43:04;94668.03;;;21.06;nan
7480;BME280;3781;42.272;22.658;2023-04-08T10:45:31;94658.34;;;21.93;nan
7480;BME280;3781;42.272;22.658;2023-04-08T10:48:11;94657.09;;;21.76;nan
7480;BME280;3781;42.272;22.658;2023-04-08T10:50:37;94647.38;;;22.62;nan
7480;BME280;3781;42.272;22.658;2023-04-08T10:53:05;94643.16;;;23.18;nan
7480;BME280;3781;42.272;22.658;2023-04-08T10:55:33;94648.84;;;23.21;nan
7480;BME280;3781;42.272;22.658;2023-04-08T10:58:06;94653.06;;;22.32;nan
7480;BME280;3781;42.272;22.658;2023-04-08T11:00:35;94648.09;;;20.14;nan
7480;BME280;3781;42.272;22.658;2023-04-08T11:03:02;94636.81;;;18.70;nan
7480;BME280;3781;42.272;22.658;2023-04-08T11:05:29;94642.84;;;18.13;nan
7480;BME280;3781;42.272;22.658;2023-04-08T11:07:57;94633.59;;;17.65;nan
7480;BME280;3781;42.272;22.658;2023-04-08T11:10:24;94640.00;;;16.78;nan
7480;BME280;3781;42.272;22.658;2023-04-08T11:12:52;94631.63;;;16.12;nan
7480;BME280;3781;42.272;22.658;2023-04-08T11:15:22;94633.13;;;15.34;nan
7480;BME280;3781;42.272;22.658;2023-04-08T11:17:50;94631.38;;;14.09;nan
7480;BME280;3781;42.272;22.658;2023-04-08T11:20:18;94597.50;;;12.95;nan
7480;BME280;3781;42.272;22.658;2023-04-08T11:22:46;94633.34;;;12.66;nan
7480;BME280;3781;42.272;22.658;2023-04-08T11:25:13;94637.09;;;12.27;nan
7480;BME280;3781;42.272;22.658;2023-04-08T11:27:40;94643.06;;;12.09;nan
7480;BME280;3781;42.272;22.658;2023-04-08T11:30:08;94647.91;;;12.04;nan
7480;BME280;3781;42.272;22.658;2023-04-08T11:32:38;94602.13;;;12.39;nan
7480;BME280;3781;42.272;22.658;2023-04-08T11:35:06;94628.84;;;13.30;nan
7480;BME280;3781;42.272;22.658;2023-04-08T11:37:36;94607.41;;;12.74;nan
7480;BME280;3781;42.272;22.658;2023-04-08T11:40:07;94636.47;;;12.52;nan
7480;BME280;3781;42.272;22.658;2023-04-08T11:42:34;94638.50;;;12.31;nan
7480;BME280;3781;42.272;22.658;2023-04-08T11:45:09;94593.41;;;12.30;nan
7480;BME280;3781;42.272;22.658;2023-04-08T11:47:37;94626.88;;;12.52;nan
7480;BME280;3781;42.272;22.658;2023-04-08T11:50:05;94621.78;;;12.78;nan
7480;BME280;3781;42.272;22.658;2023-04-08T11:52:43;94603.97;;;12.73;nan
7480;BME280;3781;42.272;22.658;2023-04-08T11:55:10;94597.53;;;12.50;nan
7480;BME280;3781;42.272;22.658;2023-04-08T11:57:37;94606.66;;;13.09;nan
7480;BME280;3781;42.272;22.658;2023-04-08T12:00:05;94583.50;;;13.31;nan
7480;BME280;3781;42.272;22.658;2023-04-08T12:02:32;94614.00;;;13.31;nan
7480;BME280;3781;42.272;22.658;2023-04-08T12:05:01;94582.06;;;13.11;nan
7480;BME280;3781;42.272;22.658;2023-04-08T12:07:27;94605.13;;;13.41;nan
7480;BME280;3781;42.272;22.658;2023-04-08T12:09:54;94603.81;;;13.63;nan
7480;BME280;3781;42.272;22.658;2023-04-08T12:12:21;94595.66;;;13.66;nan
7480;BME280;3781;42.272;22.658;2023-04-08T12:14:48;94565.34;;;13.65;nan
7480;BME280;3781;42.272;22.658;2023-04-08T12:17:15;94600.88;;;13.23;nan
7480;BME280;3781;42.272;22.658;2023-04-08T12:19:41;94597.09;;;13.17;nan
7480;BME280;3781;42.272;22.658;2023-04-08T12:22:10;94561.75;;;12.52;nan
7480;BME280;3781;42.272;22.658;2023-04-08T12:24:36;94595.28;;;12.55;nan
7480;BME280;3781;42.272;22.658;2023-04-08T12:27:03;94592.59;;;12.92;nan
7480;BME280;3781;42.272;22.658;2023-04-08T12:29:30;94589.28;;;13.17;nan
7480;BME280;3781;42.272;22.658;2023-04-08T12:32:00;94578.63;;;13.54;nan
7480;BME280;3781;42.272;22.658;2023-04-08T12:34:29;94591.44;;;13.91;nan
7480;BME280;3781;42.272;22.658;2023-04-08T12:36:55;94600.59;;;13.95;nan
7480;BME280;3781;42.272;22.658;2023-04-08T12:39:32;94545.50;;;13.72;nan
7480;BME280;3781;42.272;22.658;2023-04-08T12:41:59;94602.19;;;14.47;nan
7480;BME280;3781;42.272;22.658;2023-04-08T12:44:25;94605.47;;;14.57;nan
7480;BME280;3781;42.272;22.658;2023-04-08T12:46:52;94576.56;;;14.17;nan
7480;BME280;3781;42.272;22.658;2023-04-08T12:49:19;94578.81;;;14.12;nan
7480;BME280;3781;42.272;22.658;2023-04-08T12:51:46;94561.97;;;14.06;nan
7480;BME280;3781;42.272;22.658;2023-04-08T12:54:13;94570.84;;;14.13;nan
7480;BME280;3781;42.272;22.658;2023-04-08T12:56:41;94566.03;;;14.01;nan
7480;BME280;3781;42.272;22.658;2023-04-08T12:59:08;94570.25;;;13.68;nan
7480;BME280;3781;42.272;22.658;2023-04-08T13:01:35;94559.41;;;13.81;nan
7480;BME280;3781;42.272;22.658;2023-04-08T13:04:02;94524.94;;;13.43;nan
7480;BME280;3781;42.272;22.658;2023-04-08T13:06:29;94574.66;;;13.68;nan
7480;BME280;3781;42.272;22.658;2023-04-08T13:08:56;94563.28;;;13.77;nan
7480;BME280;3781;42.272;22.658;2023-04-08T13:11:23;94545.13;;;14.01;nan
7480;BME280;3781;42.272;22.658;2023-04-08T13:13:51;94574.59;;;14.19;nan
7480;BME280;3781;42.272;22.658;2023-04-08T13:16:18;94576.59;;;14.25;nan
7480;BME280;3781;42.272;22.658;2023-04-08T13:18:45;94573.00;;;13.92;nan
7480;BME280;3781;42.272;22.658;2023-04-08T13:21:11;94570.50;;;13.83;nan
7480;BME280;3781;42.272;22.658;2023-04-08T13:23:38;94571.44;;;13.30;nan
7480;BME280;3781;42.272;22.658;2023-04-08T13:26:05;94561.97;;;13.29;nan
7480;BME280;3781;42.272;22.658;2023-04-08T13:28:32;94563.66;;;13.13;nan
7480;BME280;3781;42.272;22.658;2023-04-08T13:31:00;94541.50;;;12.99;nan
7480;BME280;3781;42.272;22.658;2023-04-08T13:33:26;94559.38;;;13.29;nan
7480;BME280;3781;42.272;22.658;2023-04-08T13:35:53;94556.03;;;13.63;nan
7480;BME280;3781;42.272;22.658;2023-04-08T13:38:21;94559.44;;;13.37;nan
7480;BME280;3781;42.272;22.658;2023-04-08T13:40:48;94555.97;;;13.11;nan
7480;BME280;3781;42.272;22.658;2023-04-08T13:43:15;94558.59;;;13.11;nan